sensor_id;sensor_type;location;lat;lon;timestamp;P1;durP1;ratioP1;P2;durP2;ratioP2
23555;SDS011;11956;53.184;8.578;2023-06-10T00:01:59;11.93;;;4.40;;
23555;SDS011;11956;53.184;8.578;2023-06-10T00:05:00;9.05;;;4.68;;
23555;SDS011;11956;53.184;8.578;2023-06-10T00:08:01;11.88;;;4.55;;
23555;SDS011;11956;53.184;8.578;2023-06-10T00:11:08;12.90;;;4.22;;
23555;SDS011;11956;53.184;8.578;2023-06-10T00:14:10;12.00;;;4.43;;
23555;SDS011;11956;53.184;8.578;2023-06-10T00:17:11;11.98;;;4.63;;
23555;SDS011;11956;53.184;8.578;2023-06-10T00:20:12;11.38;;;5.03;;
23555;SDS011;11956;53.184;8.578;2023-06-10T00:23:13;11.20;;;5.00;;
23555;SDS011;11956;53.184;8.578;2023-06-10T00:26:14;10.98;;;5.07;;
23555;SDS011;11956;53.184;8.578;2023-06-10T00:29:17;12.18;;;5.00;;
23555;SDS011;11956;53.184;8.578;2023-06-10T00:32:19;13.15;;;5.45;;
23555;SDS011;11956;53.184;8.578;2023-06-10T00:35:19;15.45;;;6.05;;
23555;SDS011;11956;53.184;8.578;2023-06-10T00:38:20;15.15;;;5.15;;
23555;SDS011;11956;53.184;8.578;2023-06-10T00:41:21;15.15;;;5.68;;
23555;SDS011;11956;53.184;8.578;2023-06-10T00:44:24;15.45;;;5.43;;
23555;SDS011;11956;53.184;8.578;2023-06-10T00:47:25;11.48;;;6.20;;
23555;SDS011;11956;53.184;8.578;2023-06-10T00:50:27;13.75;;;5.55;;
23555;SDS011;11956;53.184;8.578;2023-06-10T00:53:28;10.82;;;5.60;;
23555;SDS011;11956;53.184;8.578;2023-06-10T00:56:29;17.30;;;6.97;;
23555;SDS011;11956;53.184;8.578;2023-06-10T00:59:31;13.88;;;5.80;;
23555;SDS011;11956;53.184;8.578;2023-06-10T01:02:33;12.45;;;5.88;;
23555;SDS011;11956;53.184;8.578;2023-06-10T01:05:35;11.85;;;5.95;;
23555;SDS011;11956;53.184;8.578;2023-06-10T01:08:46;14.27;;;6.10;;
23555;SDS011;11956;53.184;8.578;2023-06-10T01:12:05;14.38;;;6.22;;
23555;SDS011;11956;53.184;8.578;2023-06-10T01:15:21;14.15;;;6.75;;
23555;SDS011;11956;53.184;8.578;2023-06-10T01:18:22;14.90;;;6.63;;
23555;SDS011;11956;53.184;8.578;2023-06-10T01:21:31;14.20;;;5.95;;
23555;SDS011;11956;53.184;8.578;2023-06-10T01:24:32;15.73;;;6.40;;
23555;SDS011;11956;53.184;8.578;2023-06-10T01:27:34;20.48;;;6.95;;
23555;SDS011;11956;53.184;8.578;2023-06-10T01:30:46;17.73;;;6.95;;
23555;SDS011;11956;53.184;8.578;2023-06-10T01:33:51;17.20;;;6.97;;
23555;SDS011;11956;53.184;8.578;2023-06-10T01:39:56;18.27;;;7.43;;
23555;SDS011;11956;53.184;8.578;2023-06-10T01:42:59;19.60;;;8.13;;
23555;SDS011;11956;53.184;8.578;2023-06-10T01:46:00;15.88;;;7.80;;
23555;SDS011;11956;53.184;8.578;2023-06-10T01:49:01;19.77;;;7.85;;
23555;SDS011;11956;53.184;8.578;2023-06-10T01:52:02;17.20;;;7.68;;
23555;SDS011;11956;53.184;8.578;2023-06-10T01:55:03;18.48;;;7.82;;
23555;SDS011;11956;53.184;8.578;2023-06-10T01:58:06;17.95;;;8.68;;
23555;SDS011;11956;53.184;8.578;2023-06-10T02:01:07;16.10;;;7.72;;
23555;SDS011;11956;53.184;8.578;2023-06-10T02:04:11;18.70;;;8.90;;
23555;SDS011;11956;53.184;8.578;2023-06-10T02:07:11;20.50;;;8.52;;
23555;SDS011;11956;53.184;8.578;2023-06-10T02:10:12;19.27;;;8.57;;
23555;SDS011;11956;53.184;8.578;2023-06-10T02:13:13;19.75;;;8.93;;
23555;SDS011;11956;53.184;8.578;2023-06-10T02:16:14;17.27;;;9.43;;
23555;SDS011;11956;53.184;8.578;2023-06-10T02:19:17;16.20;;;8.55;;
23555;SDS011;11956;53.184;8.578;2023-06-10T02:22:21;17.63;;;8.85;;
23555;SDS011;11956;53.184;8.578;2023-06-10T02:25:23;18.05;;;8.73;;
23555;SDS011;11956;53.184;8.578;2023-06-10T02:28:24;15.73;;;8.05;;
23555;SDS011;11956;53.184;8.578;2023-06-10T02:31:25;17.17;;;8.68;;
23555;SDS011;11956;53.184;8.578;2023-06-10T02:34:26;22.38;;;9.43;;
23555;SDS011;11956;53.184;8.578;2023-06-10T02:37:29;18.40;;;9.77;;
23555;SDS011;11956;53.184;8.578;2023-06-10T02:40:31;18.17;;;8.93;;
23555;SDS011;11956;53.184;8.578;2023-06-10T02:43:32;24.38;;;11.07;;
23555;SDS011;11956;53.184;8.578;2023-06-10T02:46:33;20.95;;;10.70;;
23555;SDS011;11956;53.184;8.578;2023-06-10T02:49:34;24.60;;;11.52;;
23555;SDS011;11956;53.184;8.578;2023-06-10T02:52:36;20.38;;;10.07;;
23555;SDS011;11956;53.184;8.578;2023-06-10T02:55:37;23.75;;;10.93;;
23555;SDS011;11956;53.184;8.578;2023-06-10T02:58:42;19.00;;;10.65;;
23555;SDS011;11956;53.184;8.578;2023-06-10T03:01:46;22.92;;;9.95;;
23555;SDS011;11956;53.184;8.578;2023-06-10T03:04:47;21.42;;;10.85;;
23555;SDS011;11956;53.184;8.578;2023-06-10T03:07:51;22.88;;;9.80;;
23555;SDS011;11956;53.184;8.578;2023-06-10T03:10:53;24.27;;;11.75;;
23555;SDS011;11956;53.184;8.578;2023-06-10T03:13:54;20.88;;;10.10;;
23555;SDS011;11956;53.184;8.578;2023-06-10T03:16:58;19.20;;;10.50;;
23555;SDS011;11956;53.184;8.578;2023-06-10T03:20:00;23.33;;;10.50;;
23555;SDS011;11956;53.184;8.578;2023-06-10T03:23:01;17.42;;;10.63;;
23555;SDS011;11956;53.184;8.578;2023-06-10T03:26:02;18.30;;;9.25;;
23555;SDS011;11956;53.184;8.578;2023-06-10T03:29:06;18.85;;;10.07;;
23555;SDS011;11956;53.184;8.578;2023-06-10T03:32:07;15.02;;;8.38;;
23555;SDS011;11956;53.184;8.578;2023-06-10T03:35:10;18.17;;;9.02;;
23555;SDS011;11956;53.184;8.578;2023-06-10T03:38:12;14.07;;;8.20;;
23555;SDS011;11956;53.184;8.578;2023-06-10T03:41:13;15.70;;;8.10;;
23555;SDS011;11956;53.184;8.578;2023-06-10T03:44:16;18.70;;;7.82;;
23555;SDS011;11956;53.184;8.578;2023-06-10T03:47:18;17.15;;;8.32;;
23555;SDS011;11956;53.184;8.578;2023-06-10T03:50:19;15.38;;;7.30;;
23555;SDS011;11956;53.184;8.578;2023-06-10T03:53:20;16.30;;;7.60;;
23555;SDS011;11956;53.184;8.578;2023-06-10T03:56:21;16.00;;;7.10;;
23555;SDS011;11956;53.184;8.578;2023-06-10T03:59:23;13.80;;;7.05;;
23555;SDS011;11956;53.184;8.578;2023-06-10T04:02:24;15.90;;;7.75;;
23555;SDS011;11956;53.184;8.578;2023-06-10T04:05:25;14.43;;;6.93;;
23555;SDS011;11956;53.184;8.578;2023-06-10T04:08:26;13.23;;;6.35;;
23555;SDS011;11956;53.184;8.578;2023-06-10T04:11:28;9.48;;;5.40;;
23555;SDS011;11956;53.184;8.578;2023-06-10T04:14:31;12.15;;;5.57;;
23555;SDS011;11956;53.184;8.578;2023-06-10T04:17:33;9.82;;;5.13;;
23555;SDS011;11956;53.184;8.578;2023-06-10T04:20:35;11.82;;;5.65;;
23555;SDS011;11956;53.184;8.578;2023-06-10T04:23:36;8.82;;;5.03;;
23555;SDS011;11956;53.184;8.578;2023-06-10T04:26:38;11.57;;;4.97;;
23555;SDS011;11956;53.184;8.578;2023-06-10T04:29:39;10.02;;;4.90;;
23555;SDS011;11956;53.184;8.578;2023-06-10T04:32:40;13.07;;;5.10;;
23555;SDS011;11956;53.184;8.578;2023-06-10T04:35:46;11.23;;;5.25;;
23555;SDS011;11956;53.184;8.578;2023-06-10T04:38:48;11.65;;;4.90;;
23555;SDS011;11956;53.184;8.578;2023-06-10T04:41:49;12.93;;;5.57;;
23555;SDS011;11956;53.184;8.578;2023-06-10T04:44:50;11.55;;;5.35;;
23555;SDS011;11956;53.184;8.578;2023-06-10T04:47:51;13.23;;;5.53;;
23555;SDS011;11956;53.184;8.578;2023-06-10T04:50:52;11.23;;;6.03;;
23555;SDS011;11956;53.184;8.578;2023-06-10T04:53:53;13.10;;;6.32;;
23555;SDS011;11956;53.184;8.578;2023-06-10T04:56:54;12.25;;;7.45;;
23555;SDS011;11956;53.184;8.578;2023-06-10T04:59:55;15.45;;;8.57;;
23555;SDS011;11956;53.184;8.578;2023-06-10T05:02:56;16.67;;;8.60;;
23555;SDS011;11956;53.184;8.578;2023-06-10T05:05:57;17.90;;;8.50;;
23555;SDS011;11956;53.184;8.578;2023-06-10T05:08:58;16.90;;;10.23;;
23555;SDS011;11956;53.184;8.578;2023-06-10T05:11:59;18.75;;;10.55;;
23555;SDS011;11956;53.184;8.578;2023-06-10T05:15:01;14.15;;;9.27;;
23555;SDS011;11956;53.184;8.578;2023-06-10T05:18:02;19.00;;;9.32;;
23555;SDS011;11956;53.184;8.578;2023-06-10T05:21:03;14.18;;;9.20;;
23555;SDS011;11956;53.184;8.578;2023-06-10T05:24:05;13.52;;;8.70;;
23555;SDS011;11956;53.184;8.578;2023-06-10T05:27:08;17.20;;;8.75;;
23555;SDS011;11956;53.184;8.578;2023-06-10T05:30:10;12.27;;;7.90;;
23555;SDS011;11956;53.184;8.578;2023-06-10T05:33:11;16.80;;;8.68;;
23555;SDS011;11956;53.184;8.578;2023-06-10T05:36:12;12.38;;;7.65;;
23555;SDS011;11956;53.184;8.578;2023-06-10T05:39:13;15.20;;;7.70;;
23555;SDS011;11956;53.184;8.578;2023-06-10T05:42:14;13.60;;;7.10;;
23555;SDS011;11956;53.184;8.578;2023-06-10T05:45:14;16.63;;;7.57;;
23555;SDS011;11956;53.184;8.578;2023-06-10T05:48:16;10.63;;;5.78;;
23555;SDS011;11956;53.184;8.578;2023-06-10T05:51:17;11.95;;;6.25;;
23555;SDS011;11956;53.184;8.578;2023-06-10T05:54:18;15.32;;;6.63;;
23555;SDS011;11956;53.184;8.578;2023-06-10T05:57:19;12.00;;;5.30;;
23555;SDS011;11956;53.184;8.578;2023-06-10T06:00:20;11.40;;;5.45;;
23555;SDS011;11956;53.184;8.578;2023-06-10T06:03:21;13.35;;;5.15;;
23555;SDS011;11956;53.184;8.578;2023-06-10T06:06:22;10.90;;;4.90;;
23555;SDS011;11956;53.184;8.578;2023-06-10T06:09:23;10.32;;;5.20;;
23555;SDS011;11956;53.184;8.578;2023-06-10T06:12:24;9.93;;;4.95;;
23555;SDS011;11956;53.184;8.578;2023-06-10T06:15:24;12.35;;;5.45;;
23555;SDS011;11956;53.184;8.578;2023-06-10T06:18:25;14.45;;;5.15;;
23555;SDS011;11956;53.184;8.578;2023-06-10T06:21:26;10.88;;;5.63;;
23555;SDS011;11956;53.184;8.578;2023-06-10T06:24:27;7.93;;;3.92;;
23555;SDS011;11956;53.184;8.578;2023-06-10T06:27:28;11.45;;;4.35;;
23555;SDS011;11956;53.184;8.578;2023-06-10T06:30:29;8.43;;;4.45;;
23555;SDS011;11956;53.184;8.578;2023-06-10T06:33:30;10.95;;;4.30;;
23555;SDS011;11956;53.184;8.578;2023-06-10T06:36:31;8.65;;;3.97;;
23555;SDS011;11956;53.184;8.578;2023-06-10T06:39:31;9.85;;;4.05;;
23555;SDS011;11956;53.184;8.578;2023-06-10T06:42:32;9.25;;;3.90;;
23555;SDS011;11956;53.184;8.578;2023-06-10T06:45:51;9.15;;;3.80;;
23555;SDS011;11956;53.184;8.578;2023-06-10T06:48:52;7.82;;;3.92;;
23555;SDS011;11956;53.184;8.578;2023-06-10T06:51:53;14.40;;;4.45;;
23555;SDS011;11956;53.184;8.578;2023-06-10T06:54:53;10.05;;;4.00;;
23555;SDS011;11956;53.184;8.578;2023-06-10T06:57:54;8.65;;;4.38;;
23555;SDS011;11956;53.184;8.578;2023-06-10T07:00:55;8.63;;;4.15;;
23555;SDS011;11956;53.184;8.578;2023-06-10T07:03:57;12.10;;;4.63;;
23555;SDS011;11956;53.184;8.578;2023-06-10T07:06:58;12.27;;;4.07;;
23555;SDS011;11956;53.184;8.578;2023-06-10T07:09:59;6.63;;;3.60;;
23555;SDS011;11956;53.184;8.578;2023-06-10T07:13:00;10.50;;;3.42;;
23555;SDS011;11956;53.184;8.578;2023-06-10T07:16:00;12.95;;;3.90;;
23555;SDS011;11956;53.184;8.578;2023-06-10T07:19:01;7.82;;;3.50;;
23555;SDS011;11956;53.184;8.578;2023-06-10T07:22:02;8.63;;;3.72;;
23555;SDS011;11956;53.184;8.578;2023-06-10T07:25:04;7.10;;;3.10;;
23555;SDS011;11956;53.184;8.578;2023-06-10T07:28:05;7.03;;;3.08;;
23555;SDS011;11956;53.184;8.578;2023-06-10T07:31:07;7.07;;;3.35;;
23555;SDS011;11956;53.184;8.578;2023-06-10T07:34:08;4.47;;;3.13;;
23555;SDS011;11956;53.184;8.578;2023-06-10T07:37:09;4.90;;;2.80;;
23555;SDS011;11956;53.184;8.578;2023-06-10T07:40:10;8.27;;;3.40;;
23555;SDS011;11956;53.184;8.578;2023-06-10T07:43:11;7.40;;;3.55;;
23555;SDS011;11956;53.184;8.578;2023-06-10T07:46:12;5.75;;;2.83;;
23555;SDS011;11956;53.184;8.578;2023-06-10T07:49:13;7.22;;;3.67;;
23555;SDS011;11956;53.184;8.578;2023-06-10T07:52:14;7.15;;;3.50;;
23555;SDS011;11956;53.184;8.578;2023-06-10T07:55:15;8.27;;;3.20;;
23555;SDS011;11956;53.184;8.578;2023-06-10T07:58:15;9.27;;;3.72;;
23555;SDS011;11956;53.184;8.578;2023-06-10T08:01:16;7.38;;;3.25;;
23555;SDS011;11956;53.184;8.578;2023-06-10T08:04:17;5.20;;;2.60;;
23555;SDS011;11956;53.184;8.578;2023-06-10T08:07:18;9.05;;;3.22;;
23555;SDS011;11956;53.184;8.578;2023-06-10T08:10:19;6.97;;;3.35;;
23555;SDS011;11956;53.184;8.578;2023-06-10T08:13:20;13.80;;;3.40;;
23555;SDS011;11956;53.184;8.578;2023-06-10T08:16:20;6.65;;;3.08;;
23555;SDS011;11956;53.184;8.578;2023-06-10T08:19:21;7.90;;;3.75;;
23555;SDS011;11956;53.184;8.578;2023-06-10T08:22:22;6.45;;;2.67;;
23555;SDS011;11956;53.184;8.578;2023-06-10T08:25:23;7.28;;;3.47;;
23555;SDS011;11956;53.184;8.578;2023-06-10T08:28:24;7.70;;;3.58;;
23555;SDS011;11956;53.184;8.578;2023-06-10T08:31:25;7.45;;;3.40;;
23555;SDS011;11956;53.184;8.578;2023-06-10T08:34:26;7.65;;;3.40;;
23555;SDS011;11956;53.184;8.578;2023-06-10T08:37:26;5.22;;;2.88;;
23555;SDS011;11956;53.184;8.578;2023-06-10T08:40:27;7.88;;;3.55;;
23555;SDS011;11956;53.184;8.578;2023-06-10T08:43:42;7.78;;;3.35;;
23555;SDS011;11956;53.184;8.578;2023-06-10T08:46:47;8.32;;;4.22;;
23555;SDS011;11956;53.184;8.578;2023-06-10T08:49:49;9.07;;;3.65;;
23555;SDS011;11956;53.184;8.578;2023-06-10T08:52:53;7.40;;;3.90;;
23555;SDS011;11956;53.184;8.578;2023-06-10T08:55:58;9.77;;;4.30;;
23555;SDS011;11956;53.184;8.578;2023-06-10T08:59:01;8.07;;;3.60;;
23555;SDS011;11956;53.184;8.578;2023-06-10T09:02:02;5.25;;;3.75;;
23555;SDS011;11956;53.184;8.578;2023-06-10T09:05:05;9.60;;;4.40;;
23555;SDS011;11956;53.184;8.578;2023-06-10T09:08:08;8.32;;;3.92;;
23555;SDS011;11956;53.184;8.578;2023-06-10T09:11:09;8.40;;;4.18;;
23555;SDS011;11956;53.184;8.578;2023-06-10T09:14:10;7.43;;;3.95;;
23555;SDS011;11956;53.184;8.578;2023-06-10T09:17:12;6.88;;;3.90;;
23555;SDS011;11956;53.184;8.578;2023-06-10T09:20:13;10.43;;;5.00;;
23555;SDS011;11956;53.184;8.578;2023-06-10T09:23:15;8.80;;;4.00;;
23555;SDS011;11956;53.184;8.578;2023-06-10T09:26:17;7.25;;;3.65;;
23555;SDS011;11956;53.184;8.578;2023-06-10T09:29:18;6.90;;;3.40;;
23555;SDS011;11956;53.184;8.578;2023-06-10T09:32:19;7.32;;;3.75;;
23555;SDS011;11956;53.184;8.578;2023-06-10T09:35:21;9.87;;;4.17;;
23555;SDS011;11956;53.184;8.578;2023-06-10T09:38:23;6.80;;;4.18;;
23555;SDS011;11956;53.184;8.578;2023-06-10T09:41:39;10.00;;;4.57;;
23555;SDS011;11956;53.184;8.578;2023-06-10T09:44:41;7.45;;;3.85;;
23555;SDS011;11956;53.184;8.578;2023-06-10T09:47:42;7.47;;;3.80;;
23555;SDS011;11956;53.184;8.578;2023-06-10T09:50:46;5.93;;;3.70;;
23555;SDS011;11956;53.184;8.578;2023-06-10T09:53:49;7.28;;;3.42;;
23555;SDS011;11956;53.184;8.578;2023-06-10T09:56:52;8.07;;;3.88;;
23555;SDS011;11956;53.184;8.578;2023-06-10T09:59:52;7.18;;;3.30;;
23555;SDS011;11956;53.184;8.578;2023-06-10T10:02:54;7.35;;;3.50;;
23555;SDS011;11956;53.184;8.578;2023-06-10T10:05:59;6.03;;;3.03;;
23555;SDS011;11956;53.184;8.578;2023-06-10T10:09:03;9.70;;;3.47;;
23555;SDS011;11956;53.184;8.578;2023-06-10T10:12:11;8.32;;;3.40;;
23555;SDS011;11956;53.184;8.578;2023-06-10T10:15:13;7.18;;;3.30;;
23555;SDS011;11956;53.184;8.578;2023-06-10T10:18:18;6.70;;;3.50;;
23555;SDS011;11956;53.184;8.578;2023-06-10T10:21:30;7.53;;;3.25;;
23555;SDS011;11956;53.184;8.578;2023-06-10T10:24:39;8.65;;;3.25;;
23555;SDS011;11956;53.184;8.578;2023-06-10T10:27:59;7.38;;;3.30;;
23555;SDS011;11956;53.184;8.578;2023-06-10T10:31:13;6.50;;;3.05;;
23555;SDS011;11956;53.184;8.578;2023-06-10T10:34:24;8.02;;;3.72;;
23555;SDS011;11956;53.184;8.578;2023-06-10T10:38:21;8.60;;;2.80;;
23555;SDS011;11956;53.184;8.578;2023-06-10T10:41:23;7.63;;;2.97;;
23555;SDS011;11956;53.184;8.578;2023-06-10T10:44:26;11.05;;;3.50;;
23555;SDS011;11956;53.184;8.578;2023-06-10T10:47:27;10.55;;;3.40;;
23555;SDS011;11956;53.184;8.578;2023-06-10T10:50:30;6.80;;;2.90;;
23555;SDS011;11956;53.184;8.578;2023-06-10T10:53:31;5.82;;;2.95;;
23555;SDS011;11956;53.184;8.578;2023-06-10T10:56:32;7.28;;;2.85;;
23555;SDS011;11956;53.184;8.578;2023-06-10T10:59:43;5.47;;;2.85;;
23555;SDS011;11956;53.184;8.578;2023-06-10T11:06:00;7.35;;;2.80;;
23555;SDS011;11956;53.184;8.578;2023-06-10T11:09:24;6.65;;;2.92;;
23555;SDS011;11956;53.184;8.578;2023-06-10T11:15:58;5.32;;;2.83;;
23555;SDS011;11956;53.184;8.578;2023-06-10T11:18:59;5.75;;;2.70;;
23555;SDS011;11956;53.184;8.578;2023-06-10T11:22:00;6.28;;;2.90;;
23555;SDS011;11956;53.184;8.578;2023-06-10T11:28:17;5.38;;;2.35;;
23555;SDS011;11956;53.184;8.578;2023-06-10T11:31:26;5.72;;;2.30;;
23555;SDS011;11956;53.184;8.578;2023-06-10T11:34:32;6.23;;;2.73;;
23555;SDS011;11956;53.184;8.578;2023-06-10T11:37:33;4.68;;;2.40;;
23555;SDS011;11956;53.184;8.578;2023-06-10T11:40:34;5.05;;;2.60;;
23555;SDS011;11956;53.184;8.578;2023-06-10T11:43:37;4.95;;;2.25;;
23555;SDS011;11956;53.184;8.578;2023-06-10T11:46:43;5.88;;;2.47;;
23555;SDS011;11956;53.184;8.578;2023-06-10T11:49:45;4.63;;;2.20;;
23555;SDS011;11956;53.184;8.578;2023-06-10T11:52:55;4.38;;;2.20;;
23555;SDS011;11956;53.184;8.578;2023-06-10T11:55:58;4.80;;;2.47;;
23555;SDS011;11956;53.184;8.578;2023-06-10T11:58:59;7.05;;;2.50;;
23555;SDS011;11956;53.184;8.578;2023-06-10T12:02:06;7.25;;;2.17;;
23555;SDS011;11956;53.184;8.578;2023-06-10T12:05:19;4.55;;;2.38;;
23555;SDS011;11956;53.184;8.578;2023-06-10T12:08:19;3.38;;;2.03;;
23555;SDS011;11956;53.184;8.578;2023-06-10T12:11:20;3.83;;;2.00;;
23555;SDS011;11956;53.184;8.578;2023-06-10T12:17:54;4.55;;;2.15;;
23555;SDS011;11956;53.184;8.578;2023-06-10T12:20:56;5.28;;;2.53;;
23555;SDS011;11956;53.184;8.578;2023-06-10T12:23:59;3.83;;;2.17;;
23555;SDS011;11956;53.184;8.578;2023-06-10T12:27:11;5.65;;;2.10;;
23555;SDS011;11956;53.184;8.578;2023-06-10T12:30:18;5.22;;;2.00;;
23555;SDS011;11956;53.184;8.578;2023-06-10T12:33:24;5.05;;;2.35;;
23555;SDS011;11956;53.184;8.578;2023-06-10T12:36:25;3.67;;;2.25;;
23555;SDS011;11956;53.184;8.578;2023-06-10T12:39:26;3.83;;;2.13;;
23555;SDS011;11956;53.184;8.578;2023-06-10T12:42:26;4.75;;;2.08;;
23555;SDS011;11956;53.184;8.578;2023-06-10T12:45:34;5.13;;;2.03;;
23555;SDS011;11956;53.184;8.578;2023-06-10T12:48:48;3.67;;;1.80;;
23555;SDS011;11956;53.184;8.578;2023-06-10T12:51:54;4.10;;;2.20;;
23555;SDS011;11956;53.184;8.578;2023-06-10T12:54:55;7.60;;;2.00;;
23555;SDS011;11956;53.184;8.578;2023-06-10T12:57:56;4.05;;;2.40;;
23555;SDS011;11956;53.184;8.578;2023-06-10T13:00:57;5.28;;;2.00;;
23555;SDS011;11956;53.184;8.578;2023-06-10T13:03:59;6.22;;;2.25;;
23555;SDS011;11956;53.184;8.578;2023-06-10T13:07:00;4.45;;;2.30;;
23555;SDS011;11956;53.184;8.578;2023-06-10T13:10:01;5.65;;;1.80;;
23555;SDS011;11956;53.184;8.578;2023-06-10T13:13:02;3.22;;;1.70;;
23555;SDS011;11956;53.184;8.578;2023-06-10T13:16:08;5.70;;;2.20;;
23555;SDS011;11956;53.184;8.578;2023-06-10T13:19:09;4.13;;;2.08;;
23555;SDS011;11956;53.184;8.578;2023-06-10T13:22:10;3.67;;;1.98;;
23555;SDS011;11956;53.184;8.578;2023-06-10T13:25:10;5.45;;;2.47;;
23555;SDS011;11956;53.184;8.578;2023-06-10T13:28:11;3.60;;;2.30;;
23555;SDS011;11956;53.184;8.578;2023-06-10T13:31:12;4.00;;;2.22;;
23555;SDS011;11956;53.184;8.578;2023-06-10T13:34:13;3.75;;;2.25;;
23555;SDS011;11956;53.184;8.578;2023-06-10T13:37:14;4.90;;;2.55;;
23555;SDS011;11956;53.184;8.578;2023-06-10T13:40:19;4.78;;;2.53;;
23555;SDS011;11956;53.184;8.578;2023-06-10T13:43:20;3.78;;;2.25;;
23555;SDS011;11956;53.184;8.578;2023-06-10T13:46:21;6.70;;;2.17;;
23555;SDS011;11956;53.184;8.578;2023-06-10T13:49:22;6.63;;;2.33;;
23555;SDS011;11956;53.184;8.578;2023-06-10T13:52:23;4.63;;;2.25;;
23555;SDS011;11956;53.184;8.578;2023-06-10T13:55:24;5.07;;;2.65;;
23555;SDS011;11956;53.184;8.578;2023-06-10T13:58:25;4.85;;;2.90;;
23555;SDS011;11956;53.184;8.578;2023-06-10T14:01:26;6.65;;;2.70;;
23555;SDS011;11956;53.184;8.578;2023-06-10T14:04:26;4.28;;;2.70;;
23555;SDS011;11956;53.184;8.578;2023-06-10T14:07:27;6.32;;;2.40;;
23555;SDS011;11956;53.184;8.578;2023-06-10T14:10:28;5.95;;;2.80;;
23555;SDS011;11956;53.184;8.578;2023-06-10T14:13:29;4.80;;;2.58;;
23555;SDS011;11956;53.184;8.578;2023-06-10T14:16:30;4.10;;;2.70;;
23555;SDS011;11956;53.184;8.578;2023-06-10T14:19:31;5.15;;;3.10;;
23555;SDS011;11956;53.184;8.578;2023-06-10T14:22:31;5.80;;;3.03;;
23555;SDS011;11956;53.184;8.578;2023-06-10T14:25:32;4.25;;;2.47;;
23555;SDS011;11956;53.184;8.578;2023-06-10T14:28:33;5.50;;;2.90;;
23555;SDS011;11956;53.184;8.578;2023-06-10T14:31:34;5.53;;;3.17;;
23555;SDS011;11956;53.184;8.578;2023-06-10T14:34:35;6.45;;;3.58;;
23555;SDS011;11956;53.184;8.578;2023-06-10T14:37:36;6.95;;;3.10;;
23555;SDS011;11956;53.184;8.578;2023-06-10T14:40:37;3.78;;;2.78;;
23555;SDS011;11956;53.184;8.578;2023-06-10T14:43:38;4.95;;;2.90;;
23555;SDS011;11956;53.184;8.578;2023-06-10T14:46:38;6.07;;;3.15;;
23555;SDS011;11956;53.184;8.578;2023-06-10T14:49:39;9.95;;;3.40;;
23555;SDS011;11956;53.184;8.578;2023-06-10T14:52:42;5.18;;;3.63;;
23555;SDS011;11956;53.184;8.578;2023-06-10T14:55:43;5.63;;;3.40;;
23555;SDS011;11956;53.184;8.578;2023-06-10T14:58:43;7.38;;;3.30;;
23555;SDS011;11956;53.184;8.578;2023-06-10T15:01:44;6.05;;;3.30;;
23555;SDS011;11956;53.184;8.578;2023-06-10T15:04:45;4.93;;;3.10;;
23555;SDS011;11956;53.184;8.578;2023-06-10T15:07:46;6.15;;;3.20;;
23555;SDS011;11956;53.184;8.578;2023-06-10T15:10:47;5.68;;;3.33;;
23555;SDS011;11956;53.184;8.578;2023-06-10T15:13:48;4.95;;;3.33;;
23555;SDS011;11956;53.184;8.578;2023-06-10T15:16:49;8.70;;;3.72;;
23555;SDS011;11956;53.184;8.578;2023-06-10T15:19:50;5.50;;;3.50;;
23555;SDS011;11956;53.184;8.578;2023-06-10T15:22:51;9.07;;;3.55;;
23555;SDS011;11956;53.184;8.578;2023-06-10T15:25:53;4.43;;;3.55;;
23555;SDS011;11956;53.184;8.578;2023-06-10T15:28:54;6.25;;;3.58;;
23555;SDS011;11956;53.184;8.578;2023-06-10T15:31:55;5.45;;;3.70;;
23555;SDS011;11956;53.184;8.578;2023-06-10T15:34:56;6.72;;;3.72;;
23555;SDS011;11956;53.184;8.578;2023-06-10T15:37:57;4.60;;;3.53;;
23555;SDS011;11956;53.184;8.578;2023-06-10T15:40:58;6.72;;;3.58;;
23555;SDS011;11956;53.184;8.578;2023-06-10T15:43:59;8.07;;;3.80;;
23555;SDS011;11956;53.184;8.578;2023-06-10T15:47:00;7.10;;;4.25;;
23555;SDS011;11956;53.184;8.578;2023-06-10T15:50:01;5.78;;;3.72;;
23555;SDS011;11956;53.184;8.578;2023-06-10T15:53:02;5.13;;;3.50;;
23555;SDS011;11956;53.184;8.578;2023-06-10T15:56:03;7.68;;;3.90;;
23555;SDS011;11956;53.184;8.578;2023-06-10T15:59:04;8.35;;;3.90;;
23555;SDS011;11956;53.184;8.578;2023-06-10T16:02:05;6.20;;;4.28;;
23555;SDS011;11956;53.184;8.578;2023-06-10T16:05:09;7.80;;;4.32;;
23555;SDS011;11956;53.184;8.578;2023-06-10T16:08:10;5.10;;;4.03;;
23555;SDS011;11956;53.184;8.578;2023-06-10T16:11:10;8.32;;;4.13;;
23555;SDS011;11956;53.184;8.578;2023-06-10T16:14:11;5.15;;;4.05;;
23555;SDS011;11956;53.184;8.578;2023-06-10T16:17:13;6.15;;;4.00;;
23555;SDS011;11956;53.184;8.578;2023-06-10T16:20:14;7.85;;;3.97;;
23555;SDS011;11956;53.184;8.578;2023-06-10T16:23:15;8.02;;;3.88;;
23555;SDS011;11956;53.184;8.578;2023-06-10T16:26:16;8.90;;;3.90;;
23555;SDS011;11956;53.184;8.578;2023-06-10T16:29:17;7.10;;;3.97;;
23555;SDS011;11956;53.184;8.578;2023-06-10T16:32:18;7.00;;;4.18;;
23555;SDS011;11956;53.184;8.578;2023-06-10T16:35:19;7.13;;;3.88;;
23555;SDS011;11956;53.184;8.578;2023-06-10T16:38:20;5.68;;;3.70;;
23555;SDS011;11956;53.184;8.578;2023-06-10T16:41:22;7.57;;;4.30;;
23555;SDS011;11956;53.184;8.578;2023-06-10T16:44:23;8.48;;;4.70;;
23555;SDS011;11956;53.184;8.578;2023-06-10T16:47:24;6.60;;;4.07;;
23555;SDS011;11956;53.184;8.578;2023-06-10T16:50:25;7.82;;;3.88;;
23555;SDS011;11956;53.184;8.578;2023-06-10T16:53:26;11.55;;;6.10;;
23555;SDS011;11956;53.184;8.578;2023-06-10T16:56:27;7.05;;;4.40;;
23555;SDS011;11956;53.184;8.578;2023-06-10T16:59:27;7.15;;;5.05;;
23555;SDS011;11956;53.184;8.578;2023-06-10T17:02:28;5.90;;;4.15;;
23555;SDS011;11956;53.184;8.578;2023-06-10T17:05:30;9.15;;;4.70;;
23555;SDS011;11956;53.184;8.578;2023-06-10T17:08:30;7.38;;;4.53;;
23555;SDS011;11956;53.184;8.578;2023-06-10T17:11:31;11.60;;;4.70;;
23555;SDS011;11956;53.184;8.578;2023-06-10T17:14:33;8.65;;;4.80;;
23555;SDS011;11956;53.184;8.578;2023-06-10T17:17:34;8.27;;;4.68;;
23555;SDS011;11956;53.184;8.578;2023-06-10T17:20:35;7.90;;;4.80;;
23555;SDS011;11956;53.184;8.578;2023-06-10T17:23:36;11.52;;;5.00;;
23555;SDS011;11956;53.184;8.578;2023-06-10T17:26:37;8.75;;;4.93;;
23555;SDS011;11956;53.184;8.578;2023-06-10T17:29:38;5.93;;;4.50;;
23555;SDS011;11956;53.184;8.578;2023-06-10T17:32:39;7.90;;;5.07;;
23555;SDS011;11956;53.184;8.578;2023-06-10T17:35:40;5.43;;;4.53;;
23555;SDS011;11956;53.184;8.578;2023-06-10T17:38:41;7.60;;;5.22;;
23555;SDS011;11956;53.184;8.578;2023-06-10T17:41:42;7.47;;;4.80;;
23555;SDS011;11956;53.184;8.578;2023-06-10T17:44:43;9.77;;;5.10;;
23555;SDS011;11956;53.184;8.578;2023-06-10T17:47:44;6.80;;;5.10;;
23555;SDS011;11956;53.184;8.578;2023-06-10T17:50:44;9.10;;;4.85;;
23555;SDS011;11956;53.184;8.578;2023-06-10T17:53:45;9.32;;;5.10;;
23555;SDS011;11956;53.184;8.578;2023-06-10T17:56:47;8.30;;;5.05;;
23555;SDS011;11956;53.184;8.578;2023-06-10T17:59:48;10.10;;;4.88;;
23555;SDS011;11956;53.184;8.578;2023-06-10T18:02:49;7.47;;;4.97;;
23555;SDS011;11956;53.184;8.578;2023-06-10T18:05:49;10.55;;;5.15;;
23555;SDS011;11956;53.184;8.578;2023-06-10T18:08:50;9.32;;;4.88;;
23555;SDS011;11956;53.184;8.578;2023-06-10T18:11:51;8.45;;;4.72;;
23555;SDS011;11956;53.184;8.578;2023-06-10T18:14:53;9.98;;;4.95;;
23555;SDS011;11956;53.184;8.578;2023-06-10T18:17:54;6.15;;;4.70;;
23555;SDS011;11956;53.184;8.578;2023-06-10T18:20:55;7.50;;;5.05;;
23555;SDS011;11956;53.184;8.578;2023-06-10T18:23:56;7.82;;;4.82;;
23555;SDS011;11956;53.184;8.578;2023-06-10T18:26:57;9.82;;;5.32;;
23555;SDS011;11956;53.184;8.578;2023-06-10T18:29:57;8.27;;;4.80;;